Time;durP1;ratioP1;P1;durP2;ratioP2;P2;SDS_P1;SDS_P2;PMS_P1;PMS_P2;Temp;Humidity;BMP_temperature;BMP_pressure;BME280_temperature;BME280_humidity;BME280_pressure;Samples;Min_cycle;Max_cycle;Signal;HPM_P1;HPM_P2
2021/12/18 00:01:30;;;;;;;34.27;5.00;;;5.30;99.90;;;;;;5051420;28;20352;-51
2021/12/18 00:03:56;;;;;;;21.93;3.40;;;5.20;99.90;;;;;;5052029;28;20262;-50
2021/12/18 00:06:21;;;;;;;37.53;5.57;;;5.20;99.90;;;;;;5051503;28;20261;-51
2021/12/18 00:08:48;;;;;;;30.90;4.80;;;;;;;;;;5051571;28;20221;-49
2021/12/18 00:11:14;;;;;;;31.80;4.77;;;;;;;;;;5051484;28;20624;-51
2021/12/18 00:13:40;;;;;;;42.87;6.10;;;5.20;99.90;;;;;;5051520;28;20207;-50
2021/12/18 00:16:07;;;;;;;39.93;5.80;;;5.10;99.90;;;;;;5051392;28;20665;-51
2021/12/18 00:18:34;;;;;;;36.70;5.40;;;5.10;99.90;;;;;;5051530;28;20180;-51
2021/12/18 00:21:00;;;;;;;23.03;3.57;;;5.10;99.90;;;;;;5051324;28;20199;-51
2021/12/18 00:23:26;;;;;;;27.43;4.13;;;5.10;99.90;;;;;;5051402;28;20200;-51
2021/12/18 00:25:52;;;;;;;28.83;4.40;;;5.10;99.90;;;;;;5051043;28;20245;-51
2021/12/18 00:28:18;;;;;;;20.83;3.33;;;5.30;99.90;;;;;;5051300;28;20233;-51
2021/12/18 00:30:43;;;;;;;30.50;4.53;;;5.00;99.90;;;;;;5051296;28;20184;-51
2021/12/18 00:33:09;;;;;;;33.87;4.90;;;;;;;;;;5051054;28;20195;-51
2021/12/18 00:35:36;;;;;;;25.83;4.00;;;;;;;;;;5050912;28;20270;-51
2021/12/18 00:38:06;;;;;;;28.10;4.27;;;5.10;99.90;;;;;;5051112;28;20222;-51
2021/12/18 00:40:45;;;;;;;37.77;5.43;;;5.00;99.90;;;;;;5050864;28;20249;-50
2021/12/18 00:43:29;;;;;;;34.50;5.13;;;4.40;99.90;;;;;;5051007;28;20199;-51
2021/12/18 00:45:54;;;;;;;34.87;5.07;;;5.10;99.90;;;;;;5050698;28;20161;-51
2021/12/18 00:48:20;;;;;;;36.13;5.50;;;5.10;99.90;;;;;;5051071;28;20228;-51
2021/12/18 00:50:46;;;;;;;29.50;4.50;;;5.00;99.90;;;;;;5050822;28;20270;-50
2021/12/18 00:53:12;;;;;;;33.30;4.87;;;5.10;99.90;;;;;;5049608;28;20207;-51
2021/12/18 00:55:38;;;;;;;40.83;5.90;;;;;;;;;;5050569;28;20636;-49
2021/12/18 00:58:04;;;;;;;30.87;4.67;;;5.10;99.90;;;;;;5050951;28;20168;-50
2021/12/18 01:00:31;;;;;;;29.10;4.50;;;;;;;;;;5050716;28;20191;-50
2021/12/18 01:03:00;;;;;;;32.17;4.73;;;5.10;99.90;;;;;;5049911;28;20274;-51
2021/12/18 01:05:27;;;;;;;48.80;6.93;;;5.00;99.90;;;;;;5048127;28;20533;-50
2021/12/18 01:07:56;;;;;;;58.93;8.37;;;;;;;;;;5049336;28;20218;-51
2021/12/18 01:13:01;;;;;;;34.97;5.13;;;5.00;99.90;;;;;;5050673;28;20765;-51
2021/12/18 01:23:22;;;;;;;29.90;4.37;;;5.00;99.90;;;;;;5050788;28;20261;-51
2021/12/18 01:25:49;;;;;;;31.53;4.73;;;5.00;99.90;;;;;;5050397;28;20710;-51
2021/12/18 01:28:15;;;;;;;31.33;4.67;;;5.10;99.90;;;;;;5049199;28;20658;-51
2021/12/18 01:30:41;;;;;;;46.00;6.63;;;5.00;99.90;;;;;;5050460;28;20176;-51
2021/12/18 01:33:06;;;;;;;40.53;5.87;;;5.70;99.90;;;;;;5050654;28;20713;-51
2021/12/18 01:35:32;;;;;;;32.37;4.70;;;5.00;99.90;;;;;;5050163;28;20179;-50
2021/12/18 01:37:58;;;;;;;40.97;5.93;;;5.00;99.90;;;;;;5050541;28;20168;-51
2021/12/18 01:40:24;;;;;;;42.03;5.93;;;5.00;99.90;;;;;;5050519;28;20203;-51
2021/12/18 01:45:50;;;;;;;31.00;4.53;;;5.10;99.90;;;;;;5050329;28;20170;-50
2021/12/18 01:53:47;;;;;;;30.33;4.50;;;5.00;99.90;;;;;;5054500;28;20571;-51
2021/12/18 01:56:14;;;;;;;31.03;4.63;;;;;;;;;;5054098;28;20647;-49
2021/12/18 01:58:40;;;;;;;36.63;5.40;;;5.00;99.90;;;;;;5054126;28;20298;-50
2021/12/18 02:01:06;;;;;;;31.00;4.57;;;5.10;99.90;;;;;;5053955;28;20223;-51
2021/12/18 02:03:32;;;;;;;35.63;5.23;;;5.00;99.90;;;;;;5053938;28;20192;-50
2021/12/18 02:05:59;;;;;;;46.77;6.63;;;5.00;99.90;;;;;;5053961;28;20206;-51
2021/12/18 02:08:26;;;;;;;28.23;4.27;;;5.00;99.90;;;;;;5054129;28;20176;-50
2021/12/18 02:11:39;;;;;;;28.40;4.23;;;4.50;99.90;;;;;;5053688;28;20191;-50
2021/12/18 02:14:08;;;;;;;18.03;2.97;;;5.00;99.90;;;;;;5049482;28;20195;-51
2021/12/18 02:22:00;;;;;;;4.63;1.13;;;4.90;99.90;;;;;;5052685;28;20852;-51
2021/12/18 02:24:29;;;;;;;26.03;3.87;;;;;;;;;;5053746;28;20524;-50
2021/12/18 02:26:55;;;;;;;18.20;2.93;;;;;;;;;;5053617;28;20178;-51
2021/12/18 02:29:21;;;;;;;29.70;4.47;;;;;;;;;;5053638;28;20258;-51
2021/12/18 02:31:47;;;;;;;32.73;4.77;;;;;;;;;;5053519;28;20191;-51
2021/12/18 02:34:23;;;;;;;37.43;5.50;;;;;;;;;;5053501;28;20179;-51
2021/12/18 02:36:49;;;;;;;30.10;4.43;;;4.80;99.90;;;;;;5053417;28;20181;-51
2021/12/18 02:39:43;;;;;;;25.00;3.77;;;5.00;99.90;;;;;;5053686;28;20203;-51
2021/12/18 02:42:18;;;;;;;39.40;5.53;;;4.90;99.90;;;;;;5052809;28;20219;-51
2021/12/18 02:44:44;;;;;;;29.57;4.40;;;5.10;99.90;;;;;;5053345;28;20532;-50
2021/12/18 02:47:12;;;;;;;27.63;4.17;;;5.00;99.90;;;;;;5053487;28;20644;-50
2021/12/18 02:49:43;;;;;;;19.33;3.07;;;4.90;99.90;;;;;;5053281;28;20175;-51
2021/12/18 02:52:08;;;;;;;26.20;3.93;;;4.90;99.90;;;;;;5053282;28;20195;-50
2021/12/18 02:54:38;;;;;;;36.87;5.23;;;4.90;99.90;;;;;;5053138;28;20186;-51
2021/12/18 02:57:04;;;;;;;28.60;4.20;;;4.90;99.90;;;;;;5052765;28;20175;-51
2021/12/18 02:59:40;;;;;;;35.17;5.07;;;4.90;99.90;;;;;;5051347;28;20229;-51
2021/12/18 03:02:06;;;;;;;19.03;3.00;;;;;;;;;;5052689;28;20206;-51
2021/12/18 03:04:34;;;;;;;16.43;2.67;;;4.80;99.90;;;;;;5052768;28;20168;-50
2021/12/18 03:07:03;;;;;;;25.80;3.87;;;4.80;99.90;;;;;;5053168;28;20180;-51
2021/12/18 03:25:36;;;;;;;45.97;6.57;;;;;;;;;;5052359;28;20248;-50
2021/12/18 03:28:05;;;;;;;27.23;4.13;;;;;;;;;;5052550;28;20172;-51
2021/12/18 03:30:33;;;;;;;31.93;4.70;;;4.80;99.90;;;;;;5052461;28;20182;-51
2021/12/18 03:32:59;;;;;;;34.40;5.00;;;4.80;99.90;;;;;;5052147;28;20203;-50
2021/12/18 03:35:25;;;;;;;40.77;5.77;;;4.80;99.90;;;;;;5052244;28;20647;-50
2021/12/18 03:37:51;;;;;;;28.43;4.27;;;4.80;99.90;;;;;;5052468;28;20167;-50
2021/12/18 03:40:20;;;;;;;29.07;4.37;;;4.70;99.90;;;;;;5052085;28;20290;-50
2021/12/18 03:42:46;;;;;;;29.63;4.37;;;4.80;99.90;;;;;;5052307;28;20187;-51
2021/12/18 03:45:13;;;;;;;28.27;4.20;;;4.80;99.90;;;;;;5052206;28;21031;-50
2021/12/18 03:47:39;;;;;;;35.00;5.07;;;;;;;;;;5051768;28;20171;-50
2021/12/18 03:50:05;;;;;;;26.43;3.93;;;4.80;99.90;;;;;;5052090;28;20176;-50
2021/12/18 03:52:31;;;;;;;28.30;4.23;;;4.80;99.90;;;;;;5052046;28;20206;-51
2021/12/18 03:54:57;;;;;;;37.83;5.43;;;4.80;99.90;;;;;;5051976;28;20180;-51
2021/12/18 03:57:22;;;;;;;27.40;4.03;;;4.70;99.90;;;;;;5052025;28;20256;-50
2021/12/18 03:59:48;;;;;;;34.40;5.00;;;4.70;99.90;;;;;;5051585;28;20184;-49
2021/12/18 04:02:13;;;;;;;24.23;3.60;;;4.70;99.90;;;;;;5051799;28;20343;-51
2021/12/18 04:04:39;;;;;;;28.77;4.33;;;;;;;;;;5051906;28;20179;-50
2021/12/18 04:07:07;;;;;;;27.73;4.17;;;;;;;;;;5051778;28;20172;-52
2021/12/18 04:09:33;;;;;;;29.93;4.47;;;4.90;99.90;;;;;;5051690;28;20197;-50
2021/12/18 04:12:00;;;;;;;5.80;1.33;;;4.70;99.90;;;;;;5050400;28;20282;-51
2021/12/18 04:14:25;;;;;;;43.80;6.23;;;4.70;99.90;;;;;;5051287;28;20187;-51
2021/12/18 04:16:51;;;;;;;45.03;6.40;;;4.70;99.90;;;;;;5051664;28;20180;-50
2021/12/18 04:19:18;;;;;;;31.47;4.67;;;;;;;;;;5051533;28;20188;-51
2021/12/18 04:21:44;;;;;;;29.77;4.33;;;4.80;99.90;;;;;;5051690;28;20215;-51
2021/12/18 04:24:09;;;;;;;32.03;4.67;;;4.70;99.90;;;;;;5051688;28;20504;-50
2021/12/18 04:26:35;;;;;;;31.07;4.60;;;4.80;99.90;;;;;;5051248;28;20179;-49
2021/12/18 04:29:02;;;;;;;11.90;2.13;;;;;;;;;;5051386;28;20186;-51
2021/12/18 04:31:28;;;;;;;30.70;4.57;;;4.80;99.90;;;;;;5051121;28;20207;-51
2021/12/18 04:33:54;;;;;;;29.03;4.30;;;4.80;99.90;;;;;;5051218;28;20179;-50
2021/12/18 04:36:21;;;;;;;33.50;5.00;;;4.80;99.90;;;;;;5051077;28;20172;-50
2021/12/18 04:38:47;;;;;;;33.47;4.93;;;4.80;99.90;;;;;;5051267;28;20505;-51
2021/12/18 04:41:20;;;;;;;36.37;5.30;;;;;;;;;;5050777;28;20286;-51
2021/12/18 04:43:46;;;;;;;28.70;4.27;;;4.90;99.90;;;;;;5050939;28;20156;-50
2021/12/18 04:46:12;;;;;;;12.33;2.17;;;4.80;99.90;;;;;;5051137;28;20234;-51
2021/12/18 04:48:38;;;;;;;30.73;4.50;;;;;;;;;;5051157;28;20660;-51
2021/12/18 04:51:03;;;;;;;31.63;4.60;;;4.80;99.90;;;;;;5050883;28;20640;-51
2021/12/18 04:53:29;;;;;;;12.47;2.17;;;4.70;99.90;;;;;;5050986;28;20192;-51
2021/12/18 04:55:54;;;;;;;29.30;4.30;;;4.80;99.90;;;;;;5050564;28;20816;-51
2021/12/18 04:58:20;;;;;;;30.23;4.33;;;4.70;99.90;;;;;;5051033;28;20171;-51
2021/12/18 05:00:47;;;;;;;28.97;4.27;;;4.80;99.90;;;;;;5050739;28;20191;-50
2021/12/18 05:03:15;;;;;;;38.67;5.43;;;4.80;99.90;;;;;;5050841;28;20196;-51
2021/12/18 05:05:41;;;;;;;52.67;7.40;;;4.80;99.90;;;;;;5048667;28;20183;-51
2021/12/18 05:08:06;;;;;;;27.17;4.03;;;4.80;99.90;;;;;;5048568;28;20250;-51
2021/12/18 05:10:32;;;;;;;47.93;6.77;;;;;;;;;;5048791;28;20607;-50
2021/12/18 05:12:59;;;;;;;39.47;5.73;;;;;;;;;;5048830;28;20192;-50
2021/12/18 05:15:25;;;;;;;35.67;5.23;;;4.80;99.90;;;;;;5049987;28;20203;-50
2021/12/18 05:17:50;;;;;;;34.10;5.03;;;4.80;99.90;;;;;;5050573;28;20179;-51
2021/12/18 05:20:16;;;;;;;57.00;7.90;;;4.90;99.90;;;;;;5050516;28;20207;-50
2021/12/18 05:22:42;;;;;;;12.83;2.23;;;4.90;99.90;;;;;;5050277;28;20197;-50
2021/12/18 05:25:08;;;;;;;26.43;3.93;;;4.80;99.90;;;;;;5050740;28;20201;-51
2021/12/18 05:27:36;;;;;;;44.03;6.23;;;4.80;99.90;;;;;;5050279;28;20226;-51
2021/12/18 05:30:02;;;;;;;70.13;9.80;;;;;;;;;;5050383;28;20260;-51
2021/12/18 05:32:27;;;;;;;29.00;4.33;;;;;;;;;;5050512;28;20215;-51
2021/12/18 05:34:53;;;;;;;33.70;4.83;;;4.90;99.90;;;;;;5050192;28;20182;-50
2021/12/18 05:37:30;;;;;;;39.33;5.60;;;4.80;99.90;;;;;;5050402;28;20263;-48
2021/12/18 05:39:57;;;;;;;62.27;8.53;;;4.80;99.90;;;;;;5049907;28;20156;-48
2021/12/18 05:42:22;;;;;;;44.40;6.30;;;4.80;99.90;;;;;;5050110;28;20203;-48
2021/12/18 05:44:48;;;;;;;54.60;7.63;;;4.80;99.90;;;;;;5049922;28;20175;-48
2021/12/18 05:47:13;;;;;;;45.50;6.47;;;5.60;99.90;;;;;;5049910;28;20258;-47
2021/12/18 05:49:39;;;;;;;32.80;4.87;;;4.90;99.90;;;;;;5050186;28;20180;-48
2021/12/18 05:52:06;;;;;;;47.57;6.80;;;4.90;99.90;;;;;;5050001;28;20199;-48
2021/12/18 05:54:35;;;;;;;29.23;4.43;;;;;;;;;;5049951;28;20583;-47
2021/12/18 05:57:09;;;;;;;46.57;6.60;;;4.90;99.90;;;;;;5049734;28;20179;-48
2021/12/18 05:59:36;;;;;;;39.80;5.70;;;4.70;99.90;;;;;;5049638;28;20540;-47
2021/12/18 06:02:02;;;;;;;41.17;6.00;;;;;;;;;;5050021;28;20658;-48
2021/12/18 06:04:28;;;;;;;38.37;5.60;;;;;;;;;;5049856;28;20175;-48
2021/12/18 06:07:03;;;;;;;28.93;4.27;;;4.90;99.90;;;;;;5049876;28;20540;-49
2021/12/18 06:09:29;;;;;;;37.60;5.47;;;4.80;99.90;;;;;;5050077;28;20191;-48
2021/12/18 06:11:55;;;;;;;56.80;8.13;;;;;;;;;;5049486;28;20270;-48
2021/12/18 06:14:21;;;;;;;42.00;6.10;;;;;;;;;;5049593;28;20283;-47
2021/12/18 06:16:47;;;;;;;37.37;5.50;;;4.90;99.90;;;;;;5049833;28;20327;-48
2021/12/18 06:19:12;;;;;;;42.73;6.10;;;4.90;99.90;;;;;;5049805;28;20672;-48
2021/12/18 06:21:38;;;;;;;31.67;4.70;;;4.90;99.90;;;;;;5049946;28;20207;-48
2021/12/18 06:24:04;;;;;;;37.33;5.50;;;4.90;99.90;;;;;;5049725;28;20171;-48
2021/12/18 06:26:29;;;;;;;40.33;5.90;;;4.90;99.90;;;;;;5049556;28;20179;-48
2021/12/18 06:28:55;;;;;;;46.23;6.60;;;6.20;99.90;;;;;;5049749;28;20168;-48
2021/12/18 06:31:21;;;;;;;21.10;3.20;;;;;;;;;;5049790;28;20175;-51
2021/12/18 06:33:47;;;;;;;29.07;4.30;;;5.00;99.90;;;;;;5050408;28;20172;-50
2021/12/18 06:36:12;;;;;;;43.87;6.13;;;4.90;99.90;;;;;;5053240;28;20196;-50
2021/12/18 06:38:38;;;;;;;10.47;1.93;;;5.00;99.90;;;;;;5053519;28;20211;-51
2021/12/18 06:41:04;;;;;;;49.57;6.93;;;;;;;;;;5050843;28;20298;-51
2021/12/18 06:43:30;;;;;;;39.60;5.63;;;5.00;99.90;;;;;;5051926;28;20678;-51
2021/12/18 06:45:56;;;;;;;48.80;7.00;;;;;;;;;;5050530;28;20171;-50
2021/12/18 06:48:21;;;;;;;42.90;6.13;;;4.90;99.90;;;;;;5051411;28;20172;-51
2021/12/18 06:50:47;;;;;;;28.50;4.13;;;4.90;99.90;;;;;;5053095;28;20180;-51
2021/12/18 06:53:12;;;;;;;29.20;4.30;;;4.80;99.90;;;;;;5053303;28;20210;-51
2021/12/18 06:55:38;;;;;;;30.80;4.57;;;4.90;99.90;;;;;;5052762;28;20624;-50
2021/12/18 06:58:04;;;;;;;36.87;5.23;;;4.90;99.90;;;;;;5053420;28;20322;-49
2021/12/18 07:00:30;;;;;;;10.47;1.90;;;;;;;;;;5052855;28;20586;-49
2021/12/18 07:02:56;;;;;;;24.23;3.67;;;4.60;99.90;;;;;;5052618;28;20198;-49
2021/12/18 07:05:22;;;;;;;6.00;1.33;;;5.00;99.90;;;;;;5052889;28;20674;-50
2021/12/18 07:07:50;;;;;;;29.73;4.53;;;5.00;99.90;;;;;;5052943;28;20172;-51
2021/12/18 07:10:16;;;;;;;37.63;5.43;;;6.10;99.90;;;;;;5052777;28;20206;-51
2021/12/18 07:12:41;;;;;;;34.47;5.13;;;5.10;99.90;;;;;;5052994;28;20204;-50
2021/12/18 07:15:09;;;;;;;27.47;4.27;;;5.00;99.90;;;;;;5052256;28;20271;-50
2021/12/18 07:17:34;;;;;;;15.93;2.63;;;5.00;99.90;;;;;;5052758;28;20167;-50
2021/12/18 07:20:00;;;;;;;37.60;5.80;;;5.00;99.90;;;;;;5050705;28;20625;-50
2021/12/18 07:22:26;;;;;;;26.57;4.03;;;;;;;;;;5052212;28;20206;-50
2021/12/18 07:24:52;;;;;;;12.43;2.13;;;;;;;;;;5052586;28;20190;-50
2021/12/18 07:27:18;;;;;;;46.93;6.63;;;;;;;;;;5052209;28;20175;-50
2021/12/18 07:29:43;;;;;;;30.30;4.47;;;5.00;99.90;;;;;;5052770;28;20648;-50
2021/12/18 07:32:09;;;;;;;26.33;3.90;;;5.00;99.90;;;;;;5052545;28;20203;-49
2021/12/18 07:34:35;;;;;;;16.43;2.83;;;5.00;99.90;;;;;;5052260;28;20190;-51
2021/12/18 07:37:01;;;;;;;26.27;3.97;;;;;;;;;;5052501;28;20309;-51
2021/12/18 07:39:27;;;;;;;41.63;5.93;;;5.10;99.90;;;;;;5052198;28;20690;-50
2021/12/18 07:41:53;;;;;;;30.53;4.50;;;5.10;99.90;;;;;;5052185;28;20203;-50
2021/12/18 07:44:19;;;;;;;27.47;4.13;;;5.20;99.90;;;;;;5052180;28;20170;-50
2021/12/18 07:46:45;;;;;;;24.30;3.60;;;5.10;99.90;;;;;;5051911;28;20615;-50
2021/12/18 07:49:10;;;;;;;33.67;5.03;;;5.10;99.90;;;;;;5051943;28;20217;-49
2021/12/18 07:51:36;;;;;;;43.90;6.17;;;5.10;99.90;;;;;;5052025;28;20589;-50
2021/12/18 07:54:04;;;;;;;27.63;4.03;;;5.10;99.90;;;;;;5052209;28;20215;-50
2021/12/18 07:56:30;;;;;;;14.57;2.40;;;5.20;99.90;;;;;;5051857;28;20172;-50
2021/12/18 07:58:56;;;;;;;15.37;2.53;;;5.30;99.90;;;;;;5051849;28;20176;-50
2021/12/18 08:01:22;;;;;;;21.53;3.33;;;;;;;;;;5051614;28;20203;-51
2021/12/18 08:03:48;;;;;;;31.17;4.70;;;5.10;99.90;;;;;;5051984;28;20325;-50
2021/12/18 08:06:14;;;;;;;25.73;3.77;;;5.20;99.90;;;;;;5046009;22;20235;-65
2021/12/18 08:08:40;;;;;;;42.30;5.87;;;5.30;99.90;;;;;;5002697;28;20185;-65
2021/12/18 08:11:05;;;;;;;61.47;8.03;;;;;;;;;;5002365;28;20713;-65
2021/12/18 08:13:31;;;;;;;65.23;8.47;;;;;;;;;;5003408;28;20185;-65
2021/12/18 08:15:57;;;;;;;29.87;4.37;;;5.20;99.90;;;;;;5000356;28;20197;-65
2021/12/18 08:18:22;;;;;;;63.80;8.20;;;5.10;99.90;;;;;;5000648;28;20181;-65
2021/12/18 08:20:48;;;;;;;28.57;4.23;;;5.20;99.90;;;;;;5005854;28;20224;-65
2021/12/18 08:23:14;;;;;;;93.27;11.90;;;;;;;;;;5003035;28;20185;-65
2021/12/18 08:25:40;;;;;;;40.07;5.53;;;4.50;99.90;;;;;;5002422;28;21082;-66
2021/12/18 08:28:06;;;;;;;64.63;8.53;;;;;;;;;;5001279;28;20300;-65
2021/12/18 08:30:33;;;;;;;80.50;10.27;;;;;;;;;;5003436;28;20185;-65
2021/12/18 08:32:59;;;;;;;58.37;7.90;;;5.20;99.90;;;;;;4995949;28;20232;-65
2021/12/18 08:35:27;;;;;;;41.40;5.67;;;;;;;;;;5010207;28;20578;-65
2021/12/18 08:37:54;;;;;;;45.27;6.20;;;;;;;;;;5006318;28;20193;-65
2021/12/18 08:40:20;;;;;;;38.33;5.37;;;5.30;99.90;;;;;;5001548;28;20634;-65
2021/12/18 08:42:46;;;;;;;65.17;8.43;;;5.30;99.90;;;;;;4995531;28;20191;-66
2021/12/18 08:45:12;;;;;;;42.20;5.77;;;5.20;99.90;;;;;;4999265;28;20208;-66
2021/12/18 08:47:38;;;;;;;40.67;5.60;;;5.30;99.90;;;;;;5003995;28;20243;-66
2021/12/18 08:50:06;;;;;;;45.13;6.20;;;4.80;99.90;;;;;;5003973;28;20185;-66
2021/12/18 08:52:32;;;;;;;133.03;16.03;;;5.30;99.90;;;;;;5001332;28;20182;-66
2021/12/18 08:54:59;;;;;;;107.67;13.90;;;;;;;;;;4991589;28;20193;-66
2021/12/18 08:57:25;;;;;;;50.50;6.87;;;5.40;99.90;;;;;;4998882;28;20204;-66
2021/12/18 08:59:50;;;;;;;80.50;10.20;;;5.30;99.90;;;;;;4997416;28;20551;-65
2021/12/18 09:02:17;;;;;;;82.20;10.60;;;5.20;99.90;;;;;;5001611;28;20216;-65
2021/12/18 09:04:42;;;;;;;39.60;5.40;;;5.30;99.90;;;;;;4998409;28;20609;-66
2021/12/18 09:07:10;;;;;;;86.23;10.93;;;5.30;99.90;;;;;;4997309;28;20244;-65
2021/12/18 09:09:37;;;;;;;75.23;9.60;;;;;;;;;;4995484;28;20177;-66
2021/12/18 09:12:03;;;;;;;101.23;12.67;;;;;;;;;;4998334;28;20215;-67
2021/12/18 09:14:31;;;;;;;54.87;7.40;;;5.50;99.90;;;;;;4998013;28;20243;-64
2021/12/18 09:16:59;;;;;;;38.83;5.30;;;;;;;;;;5002441;28;20208;-64
2021/12/18 09:19:26;;;;;;;46.90;6.43;;;5.30;99.90;;;;;;4998444;28;20193;-65
2021/12/18 09:21:55;;;;;;;63.80;8.30;;;5.40;99.90;;;;;;5004729;28;21181;-65
2021/12/18 09:24:21;;;;;;;93.00;11.50;;;;;;;;;;5001946;28;20177;-64
2021/12/18 09:26:50;;;;;;;55.87;7.47;;;;;;;;;;4995324;28;20917;-68
2021/12/18 09:29:18;;;;;;;186.43;22.13;;;5.60;99.90;;;;;;4990662;28;20771;-66
2021/12/18 09:31:44;;;;;;;35.27;4.83;;;5.40;99.90;;;;;;5001657;28;20178;-64
2021/12/18 09:34:10;;;;;;;106.77;13.10;;;4.70;99.90;;;;;;4998253;28;20195;-65
2021/12/18 09:36:39;;;;;;;55.90;7.23;;;;;;;;;;5002034;28;20219;-63
2021/12/18 09:39:08;;;;;;;55.47;7.50;;;;;;;;;;4998112;28;20191;-64
2021/12/18 09:41:37;;;;;;;44.70;5.67;;;;;;;;;;5001626;28;20204;-64
2021/12/18 09:44:03;;;;;;;90.70;11.20;;;;;;;;;;4998330;28;20689;-63
2021/12/18 09:46:31;;;;;;;34.13;4.83;;;;;;;;;;4996699;28;20193;-63
2021/12/18 09:48:57;;;;;;;57.30;7.63;;;;;;;;;;5005326;28;20188;-63
2021/12/18 09:51:27;;;;;;;91.00;11.30;;;;;;;;;;4999919;28;20219;-64
2021/12/18 09:53:53;;;;;;;90.50;11.27;;;;;;;;;;4988207;28;20221;-66
2021/12/18 09:56:20;;;;;;;145.87;17.77;;;;;;;;;;4990444;28;20210;-66
2021/12/18 09:58:49;;;;;;;120.50;14.83;;;;;;;;;;4990365;28;20195;-66
2021/12/18 10:01:15;;;;;;;43.73;5.90;;;;;;;;;;4999277;28;21120;-66
2021/12/18 10:03:45;;;;;;;38.80;5.13;;;;;;;;;;4996248;28;20253;-66
2021/12/18 10:06:36;;;;;;;123.17;15.10;;;5.60;99.90;;;;;;4993212;28;20236;-66
2021/12/18 10:09:08;;;;;;;44.53;6.03;;;5.50;99.90;;;;;;5007123;28;20181;-66
2021/12/18 10:11:50;;;;;;;55.83;7.13;;;5.50;99.90;;;;;;4998356;28;20193;-66
2021/12/18 10:14:18;;;;;;;34.10;4.83;;;;;;;;;;4996378;28;20207;-66
2021/12/18 10:16:51;;;;;;;97.47;12.10;;;;;;;;;;4999417;28;20204;-67
2021/12/18 10:19:31;;;;;;;115.53;14.07;;;;;;;;;;4993001;28;20682;-66
2021/12/18 10:21:58;;;;;;;154.57;18.70;;;;;;;;;;4998559;28;20231;-65
2021/12/18 10:24:24;;;;;;;108.07;13.53;;;;;;;;;;4990747;28;21149;-65
2021/12/18 10:26:51;;;;;;;44.87;6.17;;;;;;;;;;5002702;28;20587;-65
2021/12/18 10:29:35;;;;;;;97.00;12.03;;;;;;;;;;4991955;28;20185;-66
2021/12/18 10:32:09;;;;;;;44.87;6.07;;;;;;;;;;5003661;28;20189;-66
2021/12/18 10:34:36;;;;;;;47.63;6.40;;;;;;;;;;5007210;28;20258;-66
2021/12/18 10:37:21;;;;;;;46.23;6.27;;;5.60;99.90;;;;;;5003182;28;20209;-67
2021/12/18 10:39:53;;;;;;;23.30;3.30;;;5.60;99.90;;;;;;5002654;28;20189;-66
2021/12/18 10:42:39;;;;;;;57.90;7.73;;;5.60;99.90;;;;;;4999328;28;20204;-69
2021/12/18 10:45:20;;;;;;;54.20;7.13;;;5.70;99.90;;;;;;5000367;28;20264;-65
2021/12/18 10:48:03;;;;;;;70.23;8.97;;;5.70;99.90;;;;;;5001716;28;20244;-66
2021/12/18 10:50:41;;;;;;;93.57;11.87;;;6.60;99.90;;;;;;4998750;28;20673;-66
2021/12/18 10:53:14;;;;;;;100.40;12.60;;;5.70;99.90;;;;;;4997062;28;20236;-66
2021/12/18 10:55:46;;;;;;;66.07;8.57;;;5.70;99.90;;;;;;5007439;28;20247;-65
2021/12/18 10:58:15;;;;;;;95.77;11.80;;;;;;;;;;5002000;28;20597;-66
2021/12/18 11:00:43;;;;;;;49.47;6.53;;;;;;;;;;5007074;28;20173;-65
2021/12/18 11:03:15;;;;;;;70.27;9.00;;;5.30;99.90;;;;;;5005775;28;20189;-67
2021/12/18 11:05:41;;;;;;;37.97;5.20;;;5.70;99.90;;;;;;5008476;28;20213;-67
2021/12/18 11:08:11;;;;;;;88.00;10.97;;;5.70;99.90;;;;;;5003959;28;20174;-67
2021/12/18 11:10:54;;;;;;;39.83;5.30;;;5.70;99.90;;;;;;5003637;28;20262;-67
2021/12/18 11:13:40;;;;;;;153.13;18.67;;;5.90;99.90;;;;;;5001132;28;20196;-67
2021/12/18 11:16:06;;;;;;;52.47;6.93;;;5.80;99.90;;;;;;5005658;28;20190;-67
2021/12/18 11:18:33;;;;;;;52.50;6.90;;;5.80;99.90;;;;;;5008171;28;20191;-67
2021/12/18 11:20:59;;;;;;;61.83;8.10;;;;;;;;;;5005660;28;20216;-67
2021/12/18 11:23:46;;;;;;;103.53;12.63;;;;;;;;;;4997168;28;20581;-66
2021/12/18 11:26:13;;;;;;;66.63;8.60;;;5.80;99.90;;;;;;5005710;28;20280;-67
2021/12/18 11:28:48;;;;;;;66.53;8.57;;;5.80;99.90;;;;;;4999326;28;20352;-66
2021/12/18 11:31:13;;;;;;;79.00;10.17;;;5.90;99.90;;;;;;5002669;28;20192;-67
2021/12/18 11:33:40;;;;;;;58.00;7.53;;;;;;;;;;4999552;28;20184;-66
2021/12/18 11:36:08;;;;;;;73.43;9.43;;;5.30;99.90;;;;;;4999696;28;20232;-66
2021/12/18 11:38:35;;;;;;;82.37;10.23;;;5.80;99.90;;;;;;5004522;28;20181;-66
2021/12/18 11:41:02;;;;;;;62.87;8.33;;;;;;;;;;5002703;28;20204;-66
2021/12/18 11:43:38;;;;;;;120.23;14.57;;;5.80;99.90;;;;;;5000129;28;20555;-66
2021/12/18 11:46:30;;;;;;;64.90;8.63;;;5.80;99.90;;;;;;5002445;28;20636;-66
2021/12/18 11:49:02;;;;;;;65.97;8.43;;;5.90;99.90;;;;;;5001303;28;20682;-66
2021/12/18 11:51:32;;;;;;;90.93;11.43;;;5.80;99.90;;;;;;4996376;28;20193;-66
2021/12/18 11:53:58;;;;;;;90.33;11.50;;;5.80;99.90;;;;;;4984218;28;20235;-66
2021/12/18 11:56:25;;;;;;;92.77;11.57;;;5.70;99.90;;;;;;4992739;28;20209;-69
2021/12/18 11:58:51;;;;;;;193.23;23.87;;;;;;;;;;4985310;28;20418;-66
2021/12/18 12:01:25;;;;;;;48.13;6.43;;;;;;;;;;4990115;28;20597;-65
2021/12/18 12:03:59;;;;;;;127.97;15.50;;;5.40;99.90;;;;;;5002729;28;20189;-67
2021/12/18 12:06:38;;;;;;;109.83;13.47;;;5.70;99.90;;;;;;4998336;28;20224;-66
2021/12/18 12:09:35;;;;;;;109.73;13.40;;;5.70;99.90;;;;;;4990602;28;20182;-67
2021/12/18 12:12:15;;;;;;;80.23;9.83;;;5.80;99.90;;;;;;4994843;28;20186;-66
2021/12/18 12:14:43;;;;;;;60.80;7.93;;;5.70;99.90;;;;;;4992749;28;20272;-65
2021/12/18 12:17:09;;;;;;;117.03;14.43;;;;;;;;;;4994843;28;20220;-67
2021/12/18 12:19:35;;;;;;;26.77;3.80;;;;;;;;;;5003054;28;20185;-68
2021/12/18 12:22:04;;;;;;;72.70;9.10;;;5.70;99.90;;;;;;5000068;28;20204;-70
2021/12/18 12:24:50;;;;;;;96.73;11.77;;;5.70;99.90;;;;;;4998562;28;20514;-67
2021/12/18 12:27:38;;;;;;;57.43;7.50;;;5.70;99.90;;;;;;4996280;28;20177;-68
2021/12/18 12:30:11;;;;;;;68.03;8.73;;;5.70;99.90;;;;;;4989381;28;20177;-68
2021/12/18 12:32:37;;;;;;;42.53;5.93;;;6.10;99.90;;;;;;4997995;28;20489;-67
2021/12/18 12:35:09;;;;;;;38.50;5.10;;;7.20;99.90;;;;;;5003160;28;20182;-66
2021/12/18 12:37:35;;;;;;;80.27;10.30;;;;;;;;;;4997351;28;20192;-66
2021/12/18 12:40:11;;;;;;;79.63;10.03;;;5.50;99.90;;;;;;5001347;28;20188;-66
2021/12/18 12:42:38;;;;;;;102.07;12.73;;;5.70;99.90;;;;;;4998698;28;20200;-66
2021/12/18 12:45:14;;;;;;;172.13;21.63;;;5.70;99.90;;;;;;4987865;28;20177;-67
2021/12/18 12:47:40;;;;;;;79.30;10.20;;;;;;;;;;4995037;28;20190;-72
2021/12/18 12:50:11;;;;;;;73.73;9.43;;;5.70;99.90;;;;;;4995583;28;20264;-71
2021/12/18 12:53:01;;;;;;;79.60;10.33;;;5.20;99.90;;;;;;4993841;28;20181;-74
2021/12/18 12:55:30;;;;;;;80.20;10.13;;;5.80;99.90;;;;;;4996670;28;20292;-69
2021/12/18 12:58:01;;;;;;;85.37;10.80;;;5.90;99.90;;;;;;4996006;28;20196;-69
2021/12/18 13:00:27;;;;;;;87.07;11.03;;;;;;;;;;4991314;28;20223;-67
2021/12/18 13:02:52;;;;;;;68.60;8.77;;;5.40;99.90;;;;;;4989717;28;20288;-66
2021/12/18 13:05:19;;;;;;;203.73;25.00;;;5.80;99.90;;;;;;4982667;28;20217;-69
2021/12/18 13:07:48;;;;;;;53.13;6.93;;;5.80;99.90;;;;;;4998868;28;20198;-66
2021/12/18 13:10:18;;;;;;;45.90;6.03;;;6.00;99.90;;;;;;5000942;28;20284;-67
2021/12/18 13:12:53;;;;;;;49.37;6.60;;;5.80;99.90;;;;;;5002146;28;20184;-72
2021/12/18 13:15:20;;;;;;;47.17;6.20;;;5.80;99.90;;;;;;4997443;28;20716;-68
2021/12/18 13:17:46;;;;;;;63.87;8.20;;;6.20;99.90;;;;;;5001561;28;20248;-66
2021/12/18 13:20:12;;;;;;;153.90;19.43;;;;;;;;;;4988837;28;20204;-70
2021/12/18 13:22:38;;;;;;;49.50;6.43;;;5.80;99.90;;;;;;4986027;28;20256;-69
2021/12/18 13:25:12;;;;;;;109.67;13.77;;;6.00;99.90;;;;;;4991343;28;20192;-69
2021/12/18 13:27:40;;;;;;;115.97;14.27;;;6.00;99.90;;;;;;5012668;28;20195;-67
2021/12/18 13:30:18;;;;;;;53.33;7.20;;;6.00;99.90;;;;;;4996305;28;20243;-71
2021/12/18 13:32:57;;;;;;;70.27;9.03;;;6.00;99.90;;;;;;4993888;28;20657;-67
2021/12/18 13:35:25;;;;;;;87.90;11.57;;;6.00;99.90;;;;;;4995391;28;20211;-68
2021/12/18 13:37:58;;;;;;;90.47;11.50;;;;;;;;;;4990772;28;20198;-69
2021/12/18 13:40:26;;;;;;;55.10;7.30;;;;;;;;;;4997241;28;20193;-68
2021/12/18 13:43:09;;;;;;;83.90;10.67;;;6.00;99.90;;;;;;4998917;28;20209;-71
2021/12/18 13:45:58;;;;;;;78.83;10.10;;;6.50;99.90;;;;;;4994948;28;20219;-68
2021/12/18 13:48:29;;;;;;;94.70;11.77;;;;;;;;;;4998377;28;21089;-68
2021/12/18 13:50:57;;;;;;;88.13;11.10;;;;;;;;;;4989527;28;20206;-70
2021/12/18 13:53:23;;;;;;;137.63;17.03;;;;;;;;;;4996932;28;20260;-68
2021/12/18 13:55:57;;;;;;;84.40;10.87;;;;;;;;;;5001765;28;20309;-68
2021/12/18 13:58:30;;;;;;;163.07;19.80;;;;;;;;;;4997519;28;20629;-68
2021/12/18 14:00:57;;;;;;;79.10;9.93;;;;;;;;;;4993151;28;20190;-70